sensor_id;sensor_type;location;lat;lon;timestamp;pressure;altitude;pressure_sealevel;temperature;humidity
76819;BME280;65772;51.096;17.006;2023-12-20T00:01:45;99694.80;;;9.60;65.06
76819;BME280;65772;51.096;17.006;2023-12-20T00:04:16;99694.02;;;9.56;64.79
76819;BME280;65772;51.096;17.006;2023-12-20T00:06:47;99692.33;;;9.57;64.85
76819;BME280;65772;51.096;17.006;2023-12-20T00:09:18;99692.87;;;9.58;64.89
76819;BME280;65772;51.096;17.006;2023-12-20T00:11:48;99691.70;;;9.59;64.76
76819;BME280;65772;51.096;17.006;2023-12-20T00:14:18;99681.11;;;9.58;64.86
76819;BME280;65772;51.096;17.006;2023-12-20T00:16:49;99678.70;;;9.56;64.76
76819;BME280;65772;51.096;17.006;2023-12-20T00:19:20;99680.59;;;9.57;64.88
76819;BME280;65772;51.096;17.006;2023-12-20T00:21:50;99679.55;;;9.57;65.01
76819;BME280;65772;51.096;17.006;2023-12-20T00:24:21;99682.13;;;9.58;64.66
76819;BME280;65772;51.096;17.006;2023-12-20T00:26:51;99684.49;;;9.56;64.83
76819;BME280;65772;51.096;17.006;2023-12-20T00:29:22;99685.98;;;9.54;64.80
76819;BME280;65772;51.096;17.006;2023-12-20T00:31:52;99682.89;;;9.53;64.78
76819;BME280;65772;51.096;17.006;2023-12-20T00:34:23;99679.27;;;9.51;65.23
76819;BME280;65772;51.096;17.006;2023-12-20T00:36:54;99681.00;;;9.52;65.20
76819;BME280;65772;51.096;17.006;2023-12-20T00:39:24;99682.05;;;9.54;65.67
76819;BME280;65772;51.096;17.006;2023-12-20T00:41:55;99676.33;;;9.58;65.25
76819;BME280;65772;51.096;17.006;2023-12-20T00:44:25;99677.77;;;9.61;65.20
76819;BME280;65772;51.096;17.006;2023-12-20T00:46:57;99673.38;;;9.62;65.48
76819;BME280;65772;51.096;17.006;2023-12-20T00:49:27;99671.69;;;9.62;65.48
76819;BME280;65772;51.096;17.006;2023-12-20T00:51:58;99669.84;;;9.64;65.28
76819;BME280;65772;51.096;17.006;2023-12-20T00:54:29;99673.27;;;9.64;65.45
76819;BME280;65772;51.096;17.006;2023-12-20T00:57:00;99670.84;;;9.62;65.88
76819;BME280;65772;51.096;17.006;2023-12-20T00:59:30;99663.63;;;9.61;65.56
76819;BME280;65772;51.096;17.006;2023-12-20T01:02:01;99663.36;;;9.56;65.70
76819;BME280;65772;51.096;17.006;2023-12-20T01:04:31;99666.52;;;9.52;66.04
76819;BME280;65772;51.096;17.006;2023-12-20T01:07:02;99660.30;;;9.49;65.96
76819;BME280;65772;51.096;17.006;2023-12-20T01:09:32;99659.73;;;9.46;66.01
76819;BME280;65772;51.096;17.006;2023-12-20T01:12:03;99657.58;;;9.49;66.21
76819;BME280;65772;51.096;17.006;2023-12-20T01:14:34;99660.05;;;9.52;66.24
76819;BME280;65772;51.096;17.006;2023-12-20T01:17:05;99658.02;;;9.52;66.14
76819;BME280;65772;51.096;17.006;2023-12-20T01:19:35;99654.58;;;9.51;66.78
76819;BME280;65772;51.096;17.006;2023-12-20T01:22:06;99661.56;;;9.51;66.67
76819;BME280;65772;51.096;17.006;2023-12-20T01:24:37;99661.91;;;9.51;66.46
76819;BME280;65772;51.096;17.006;2023-12-20T01:27:07;99661.55;;;9.51;66.32
76819;BME280;65772;51.096;17.006;2023-12-20T01:29:38;99653.84;;;9.49;66.76
76819;BME280;65772;51.096;17.006;2023-12-20T01:32:09;99648.20;;;9.48;66.79
76819;BME280;65772;51.096;17.006;2023-12-20T01:34:39;99652.94;;;9.47;66.95
76819;BME280;65772;51.096;17.006;2023-12-20T01:37:10;99647.52;;;9.48;67.02
76819;BME280;65772;51.096;17.006;2023-12-20T01:39:41;99640.20;;;9.48;66.73
76819;BME280;65772;51.096;17.006;2023-12-20T01:42:11;99648.89;;;9.49;66.59
76819;BME280;65772;51.096;17.006;2023-12-20T01:44:42;99643.61;;;9.48;66.62
76819;BME280;65772;51.096;17.006;2023-12-20T01:47:13;99637.77;;;9.46;66.95
76819;BME280;65772;51.096;17.006;2023-12-20T01:49:44;99635.17;;;9.45;66.86
76819;BME280;65772;51.096;17.006;2023-12-20T01:52:15;99631.58;;;9.44;67.02
76819;BME280;65772;51.096;17.006;2023-12-20T01:54:46;99614.84;;;9.42;67.18
76819;BME280;65772;51.096;17.006;2023-12-20T01:57:18;99613.58;;;9.39;67.24
76819;BME280;65772;51.096;17.006;2023-12-20T01:59:49;99612.51;;;9.37;67.50
76819;BME280;65772;51.096;17.006;2023-12-20T02:02:19;99612.86;;;9.37;67.38
76819;BME280;65772;51.096;17.006;2023-12-20T02:04:50;99616.70;;;9.41;67.68
76819;BME280;65772;51.096;17.006;2023-12-20T02:07:22;99603.31;;;9.45;67.93
76819;BME280;65772;51.096;17.006;2023-12-20T02:09:53;99595.58;;;9.49;67.37
76819;BME280;65772;51.096;17.006;2023-12-20T02:12:23;99596.34;;;9.52;67.75
76819;BME280;65772;51.096;17.006;2023-12-20T02:14:54;99603.39;;;9.57;67.72
76819;BME280;65772;51.096;17.006;2023-12-20T02:17:25;99609.80;;;9.61;67.81
76819;BME280;65772;51.096;17.006;2023-12-20T02:19:55;99604.08;;;9.64;67.99
76819;BME280;65772;51.096;17.006;2023-12-20T02:22:26;99600.84;;;9.65;67.78
76819;BME280;65772;51.096;17.006;2023-12-20T02:24:57;99602.73;;;9.66;67.87
76819;BME280;65772;51.096;17.006;2023-12-20T02:27:29;99595.05;;;9.65;67.65
76819;BME280;65772;51.096;17.006;2023-12-20T02:30:00;99595.91;;;9.66;67.81
76819;BME280;65772;51.096;17.006;2023-12-20T02:32:30;99599.85;;;9.66;68.03
76819;BME280;65772;51.096;17.006;2023-12-20T02:35:01;99595.27;;;9.67;68.13
76819;BME280;65772;51.096;17.006;2023-12-20T02:37:31;99597.10;;;9.73;67.54
76819;BME280;65772;51.096;17.006;2023-12-20T02:40:02;99597.03;;;9.79;67.43
76819;BME280;65772;51.096;17.006;2023-12-20T02:42:33;99592.64;;;9.80;67.58
76819;BME280;65772;51.096;17.006;2023-12-20T02:45:05;99585.80;;;9.79;67.32
76819;BME280;65772;51.096;17.006;2023-12-20T02:47:36;99587.51;;;9.79;67.52
76819;BME280;65772;51.096;17.006;2023-12-20T02:50:07;99585.64;;;9.80;67.81
76819;BME280;65772;51.096;17.006;2023-12-20T02:52:38;99577.60;;;9.78;67.34
76819;BME280;65772;51.096;17.006;2023-12-20T02:55:09;99575.35;;;9.77;67.13
76819;BME280;65772;51.096;17.006;2023-12-20T02:57:39;99575.82;;;9.75;67.38
76819;BME280;65772;51.096;17.006;2023-12-20T03:00:13;99572.90;;;9.73;67.11
76819;BME280;65772;51.096;17.006;2023-12-20T03:02:43;99572.39;;;9.73;66.82
76819;BME280;65772;51.096;17.006;2023-12-20T03:05:14;99565.94;;;9.74;66.98
76819;BME280;65772;51.096;17.006;2023-12-20T03:07:45;99566.80;;;9.76;67.29
76819;BME280;65772;51.096;17.006;2023-12-20T03:10:16;99566.98;;;9.76;66.90
76819;BME280;65772;51.096;17.006;2023-12-20T03:12:55;99566.95;;;9.74;66.94
76819;BME280;65772;51.096;17.006;2023-12-20T03:15:25;99568.83;;;9.75;66.70
76819;BME280;65772;51.096;17.006;2023-12-20T03:17:56;99568.84;;;9.74;66.82
76819;BME280;65772;51.096;17.006;2023-12-20T03:20:28;99573.77;;;9.73;66.87
76819;BME280;65772;51.096;17.006;2023-12-20T03:23:01;99569.02;;;9.74;66.33
76819;BME280;65772;51.096;17.006;2023-12-20T03:25:31;99570.50;;;9.72;66.24
76819;BME280;65772;51.096;17.006;2023-12-20T03:28:02;99565.48;;;9.69;66.23
76819;BME280;65772;51.096;17.006;2023-12-20T03:30:33;99561.30;;;9.64;66.12
76819;BME280;65772;51.096;17.006;2023-12-20T03:33:04;99563.62;;;9.60;66.18
76819;BME280;65772;51.096;17.006;2023-12-20T03:35:34;99566.16;;;9.60;66.30
76819;BME280;65772;51.096;17.006;2023-12-20T03:38:05;99566.68;;;9.61;66.47
76819;BME280;65772;51.096;17.006;2023-12-20T03:40:35;99567.05;;;9.62;66.16
76819;BME280;65772;51.096;17.006;2023-12-20T03:43:06;99572.16;;;9.62;65.63
76819;BME280;65772;51.096;17.006;2023-12-20T03:45:36;99574.24;;;9.56;65.66
76819;BME280;65772;51.096;17.006;2023-12-20T03:48:08;99570.95;;;9.53;65.76
76819;BME280;65772;51.096;17.006;2023-12-20T03:50:39;99566.45;;;9.49;65.47
76819;BME280;65772;51.096;17.006;2023-12-20T03:53:09;99572.99;;;9.45;65.17
76819;BME280;65772;51.096;17.006;2023-12-20T03:55:40;99575.14;;;9.42;65.54
76819;BME280;65772;51.096;17.006;2023-12-20T03:58:10;99572.02;;;9.39;65.64
76819;BME280;65772;51.096;17.006;2023-12-20T04:00:41;99570.17;;;9.32;65.39
76819;BME280;65772;51.096;17.006;2023-12-20T04:03:11;99566.60;;;9.25;65.37
76819;BME280;65772;51.096;17.006;2023-12-20T04:05:43;99566.48;;;9.19;65.37
76819;BME280;65772;51.096;17.006;2023-12-20T04:08:14;99571.04;;;9.17;65.52
76819;BME280;65772;51.096;17.006;2023-12-20T04:10:44;99570.02;;;9.18;65.73
76819;BME280;65772;51.096;17.006;2023-12-20T04:13:15;99572.88;;;9.16;66.01
76819;BME280;65772;51.096;17.006;2023-12-20T04:15:46;99567.90;;;9.15;66.24
76819;BME280;65772;51.096;17.006;2023-12-20T04:18:17;99570.96;;;9.14;65.97
76819;BME280;65772;51.096;17.006;2023-12-20T04:20:48;99568.52;;;9.12;65.87
76819;BME280;65772;51.096;17.006;2023-12-20T04:23:19;99571.38;;;9.10;65.84
76819;BME280;65772;51.096;17.006;2023-12-20T04:25:49;99566.56;;;9.07;66.25
76819;BME280;65772;51.096;17.006;2023-12-20T04:28:20;99564.33;;;9.07;66.27
76819;BME280;65772;51.096;17.006;2023-12-20T04:30:50;99566.86;;;9.06;66.77
76819;BME280;65772;51.096;17.006;2023-12-20T04:33:21;99568.52;;;9.05;66.39
76819;BME280;65772;51.096;17.006;2023-12-20T04:35:52;99571.77;;;9.05;66.53
76819;BME280;65772;51.096;17.006;2023-12-20T04:38:22;99568.71;;;9.05;66.26
76819;BME280;65772;51.096;17.006;2023-12-20T04:40:53;99564.88;;;9.08;66.50
76819;BME280;65772;51.096;17.006;2023-12-20T04:43:23;99566.13;;;9.11;66.18
76819;BME280;65772;51.096;17.006;2023-12-20T04:45:54;99563.58;;;9.12;66.28
76819;BME280;65772;51.096;17.006;2023-12-20T04:48:24;99561.58;;;9.14;66.16
76819;BME280;65772;51.096;17.006;2023-12-20T04:50:55;99559.65;;;9.11;65.65
76819;BME280;65772;51.096;17.006;2023-12-20T04:53:25;99555.00;;;9.08;65.73
76819;BME280;65772;51.096;17.006;2023-12-20T04:55:56;99554.00;;;9.02;65.95
76819;BME280;65772;51.096;17.006;2023-12-20T04:58:27;99552.86;;;8.97;66.08
76819;BME280;65772;51.096;17.006;2023-12-20T05:00:58;99549.25;;;8.95;66.10
76819;BME280;65772;51.096;17.006;2023-12-20T05:03:28;99548.36;;;8.94;65.91
76819;BME280;65772;51.096;17.006;2023-12-20T05:05:59;99547.52;;;8.95;65.83
76819;BME280;65772;51.096;17.006;2023-12-20T05:08:30;99541.37;;;8.94;66.11
76819;BME280;65772;51.096;17.006;2023-12-20T05:11:01;99541.64;;;8.91;65.94
76819;BME280;65772;51.096;17.006;2023-12-20T05:13:31;99541.30;;;8.90;65.94
76819;BME280;65772;51.096;17.006;2023-12-20T05:16:13;99542.34;;;8.92;66.10
76819;BME280;65772;51.096;17.006;2023-12-20T05:18:50;99542.94;;;8.95;66.09
76819;BME280;65772;51.096;17.006;2023-12-20T05:21:21;99544.51;;;8.96;66.37
76819;BME280;65772;51.096;17.006;2023-12-20T05:23:52;99551.80;;;8.96;66.21
76819;BME280;65772;51.096;17.006;2023-12-20T05:26:22;99546.83;;;8.94;65.97
76819;BME280;65772;51.096;17.006;2023-12-20T05:28:53;99550.42;;;8.95;65.75
76819;BME280;65772;51.096;17.006;2023-12-20T05:31:23;99549.05;;;8.94;66.29
76819;BME280;65772;51.096;17.006;2023-12-20T05:33:54;99553.08;;;8.92;65.98
76819;BME280;65772;51.096;17.006;2023-12-20T05:36:25;99558.80;;;8.88;65.63
76819;BME280;65772;51.096;17.006;2023-12-20T05:38:56;99560.08;;;8.85;66.24
76819;BME280;65772;51.096;17.006;2023-12-20T05:41:26;99561.83;;;8.80;66.18
76819;BME280;65772;51.096;17.006;2023-12-20T05:43:57;99561.77;;;8.77;66.34
76819;BME280;65772;51.096;17.006;2023-12-20T05:46:28;99567.81;;;8.74;66.22
76819;BME280;65772;51.096;17.006;2023-12-20T05:48:59;99567.27;;;8.73;66.44
76819;BME280;65772;51.096;17.006;2023-12-20T05:51:29;99566.52;;;8.70;66.72
76819;BME280;65772;51.096;17.006;2023-12-20T05:54:00;99566.30;;;8.67;66.40
76819;BME280;65772;51.096;17.006;2023-12-20T05:56:30;99566.83;;;8.68;66.76
76819;BME280;65772;51.096;17.006;2023-12-20T05:59:01;99570.91;;;8.68;66.67
76819;BME280;65772;51.096;17.006;2023-12-20T06:01:31;99565.80;;;8.69;66.68
76819;BME280;65772;51.096;17.006;2023-12-20T06:04:02;99563.26;;;8.68;66.92
76819;BME280;65772;51.096;17.006;2023-12-20T06:06:33;99560.48;;;8.66;66.79
76819;BME280;65772;51.096;17.006;2023-12-20T06:09:05;99566.33;;;8.62;66.83
76819;BME280;65772;51.096;17.006;2023-12-20T06:11:35;99565.21;;;8.59;66.79
76819;BME280;65772;51.096;17.006;2023-12-20T06:14:06;99558.05;;;8.57;67.31
76819;BME280;65772;51.096;17.006;2023-12-20T06:16:36;99560.61;;;8.57;67.36
76819;BME280;65772;51.096;17.006;2023-12-20T06:19:07;99563.33;;;8.57;67.23
76819;BME280;65772;51.096;17.006;2023-12-20T06:21:37;99565.99;;;8.55;67.25
76819;BME280;65772;51.096;17.006;2023-12-20T06:24:11;99564.20;;;8.52;67.08
76819;BME280;65772;51.096;17.006;2023-12-20T06:26:42;99562.77;;;8.49;66.90
76819;BME280;65772;51.096;17.006;2023-12-20T06:29:13;99566.15;;;8.48;67.23
76819;BME280;65772;51.096;17.006;2023-12-20T06:31:44;99563.61;;;8.49;67.06
76819;BME280;65772;51.096;17.006;2023-12-20T06:34:14;99563.98;;;8.50;67.32
76819;BME280;65772;51.096;17.006;2023-12-20T06:36:45;99565.23;;;8.52;67.11
76819;BME280;65772;51.096;17.006;2023-12-20T06:39:16;99563.93;;;8.54;67.25
76819;BME280;65772;51.096;17.006;2023-12-20T06:41:46;99566.67;;;8.55;67.22
76819;BME280;65772;51.096;17.006;2023-12-20T06:44:17;99572.60;;;8.54;67.17
76819;BME280;65772;51.096;17.006;2023-12-20T06:46:47;99568.00;;;8.54;67.11
76819;BME280;65772;51.096;17.006;2023-12-20T06:49:18;99574.11;;;8.53;66.98
76819;BME280;65772;51.096;17.006;2023-12-20T06:51:49;99574.46;;;8.54;66.94
76819;BME280;65772;51.096;17.006;2023-12-20T06:54:19;99578.87;;;8.53;67.23
76819;BME280;65772;51.096;17.006;2023-12-20T06:56:50;99574.38;;;8.51;67.18
76819;BME280;65772;51.096;17.006;2023-12-20T06:59:20;99576.69;;;8.48;67.02
76819;BME280;65772;51.096;17.006;2023-12-20T07:01:51;99579.70;;;8.45;67.42
76819;BME280;65772;51.096;17.006;2023-12-20T07:04:22;99581.81;;;8.42;67.27
76819;BME280;65772;51.096;17.006;2023-12-20T07:06:52;99584.88;;;8.42;67.23
76819;BME280;65772;51.096;17.006;2023-12-20T07:09:27;99580.05;;;8.39;67.22
76819;BME280;65772;51.096;17.006;2023-12-20T07:11:58;99586.02;;;8.40;67.29
76819;BME280;65772;51.096;17.006;2023-12-20T07:14:28;99582.46;;;8.40;67.46
76819;BME280;65772;51.096;17.006;2023-12-20T07:16:59;99581.84;;;8.42;67.31
76819;BME280;65772;51.096;17.006;2023-12-20T07:19:29;99588.86;;;8.44;67.56
76819;BME280;65772;51.096;17.006;2023-12-20T07:22:00;99589.70;;;8.44;67.01
76819;BME280;65772;51.096;17.006;2023-12-20T07:24:31;99588.96;;;8.42;66.97
76819;BME280;65772;51.096;17.006;2023-12-20T07:27:02;99595.36;;;8.40;67.32
76819;BME280;65772;51.096;17.006;2023-12-20T07:29:32;99599.73;;;8.38;67.15
76819;BME280;65772;51.096;17.006;2023-12-20T07:32:03;99598.46;;;8.35;67.39
76819;BME280;65772;51.096;17.006;2023-12-20T07:34:34;99596.52;;;8.32;67.17
76819;BME280;65772;51.096;17.006;2023-12-20T07:37:06;99596.92;;;8.29;67.44
76819;BME280;65772;51.096;17.006;2023-12-20T07:39:41;99600.63;;;8.28;67.68
76819;BME280;65772;51.096;17.006;2023-12-20T07:42:11;99600.16;;;8.30;67.58
76819;BME280;65772;51.096;17.006;2023-12-20T07:44:42;99594.46;;;8.32;67.67
76819;BME280;65772;51.096;17.006;2023-12-20T07:47:12;99595.23;;;8.35;67.50
76819;BME280;65772;51.096;17.006;2023-12-20T07:49:46;99590.66;;;8.35;67.34
76819;BME280;65772;51.096;17.006;2023-12-20T07:52:16;99597.47;;;8.35;67.39
76819;BME280;65772;51.096;17.006;2023-12-20T07:54:47;99594.40;;;8.35;67.07
76819;BME280;65772;51.096;17.006;2023-12-20T07:57:18;99594.54;;;8.34;67.34
76819;BME280;65772;51.096;17.006;2023-12-20T07:59:48;99601.97;;;8.32;67.09
76819;BME280;65772;51.096;17.006;2023-12-20T08:02:19;99603.56;;;8.30;67.44
76819;BME280;65772;51.096;17.006;2023-12-20T08:04:49;99605.02;;;8.27;67.44
76819;BME280;65772;51.096;17.006;2023-12-20T08:07:20;99607.49;;;8.23;67.16
76819;BME280;65772;51.096;17.006;2023-12-20T08:09:51;99605.75;;;8.22;67.48
76819;BME280;65772;51.096;17.006;2023-12-20T08:12:22;99608.27;;;8.21;67.52
76819;BME280;65772;51.096;17.006;2023-12-20T08:14:52;99607.76;;;8.21;67.47
76819;BME280;65772;51.096;17.006;2023-12-20T08:17:23;99604.56;;;8.22;67.43
76819;BME280;65772;51.096;17.006;2023-12-20T08:19:54;99601.70;;;8.23;67.47
76819;BME280;65772;51.096;17.006;2023-12-20T08:22:24;99602.46;;;8.26;67.53
76819;BME280;65772;51.096;17.006;2023-12-20T08:24:55;99603.52;;;8.28;67.67
76819;BME280;65772;51.096;17.006;2023-12-20T08:27:26;99614.20;;;8.32;67.35
76819;BME280;65772;51.096;17.006;2023-12-20T08:29:56;99612.55;;;8.34;67.06
76819;BME280;65772;51.096;17.006;2023-12-20T08:32:28;99605.94;;;8.34;67.39
76819;BME280;65772;51.096;17.006;2023-12-20T08:34:58;99606.13;;;8.34;67.19
76819;BME280;65772;51.096;17.006;2023-12-20T08:37:29;99606.05;;;8.32;67.36
76819;BME280;65772;51.096;17.006;2023-12-20T08:40:00;99609.89;;;8.31;67.23
76819;BME280;65772;51.096;17.006;2023-12-20T08:42:30;99609.31;;;8.29;67.34
76819;BME280;65772;51.096;17.006;2023-12-20T08:45:01;99611.48;;;8.27;67.03
76819;BME280;65772;51.096;17.006;2023-12-20T08:47:33;99614.02;;;8.26;67.39
76819;BME280;65772;51.096;17.006;2023-12-20T08:50:05;99616.02;;;8.24;67.10
76819;BME280;65772;51.096;17.006;2023-12-20T08:52:36;99622.82;;;8.25;67.06
76819;BME280;65772;51.096;17.006;2023-12-20T08:55:08;99622.39;;;8.28;67.33
76819;BME280;65772;51.096;17.006;2023-12-20T08:57:39;99621.64;;;8.31;67.20
76819;BME280;65772;51.096;17.006;2023-12-20T09:00:12;99619.03;;;8.34;67.05
76819;BME280;65772;51.096;17.006;2023-12-20T09:02:43;99623.67;;;8.36;67.09
76819;BME280;65772;51.096;17.006;2023-12-20T09:05:14;99625.42;;;8.38;66.99
76819;BME280;65772;51.096;17.006;2023-12-20T09:07:45;99625.29;;;8.40;67.26
76819;BME280;65772;51.096;17.006;2023-12-20T09:10:16;99621.72;;;8.40;66.98
76819;BME280;65772;51.096;17.006;2023-12-20T09:12:52;99624.80;;;8.40;66.79
76819;BME280;65772;51.096;17.006;2023-12-20T09:15:27;99633.58;;;8.38;66.90
76819;BME280;65772;51.096;17.006;2023-12-20T09:18:05;99629.27;;;8.35;66.72
76819;BME280;65772;51.096;17.006;2023-12-20T09:20:35;99628.86;;;8.33;66.82
76819;BME280;65772;51.096;17.006;2023-12-20T09:23:10;99626.86;;;8.30;67.06
76819;BME280;65772;51.096;17.006;2023-12-20T09:25:41;99631.79;;;8.30;67.18
76819;BME280;65772;51.096;17.006;2023-12-20T09:28:11;99632.98;;;8.30;67.22
76819;BME280;65772;51.096;17.006;2023-12-20T09:30:42;99629.91;;;8.29;67.02
76819;BME280;65772;51.096;17.006;2023-12-20T09:33:15;99630.73;;;8.33;66.97
76819;BME280;65772;51.096;17.006;2023-12-20T09:35:46;99632.23;;;8.39;66.88
76819;BME280;65772;51.096;17.006;2023-12-20T09:38:17;99626.74;;;8.43;66.88
76819;BME280;65772;51.096;17.006;2023-12-20T09:40:48;99636.38;;;8.47;66.70
76819;BME280;65772;51.096;17.006;2023-12-20T09:43:20;99645.61;;;8.50;66.83
76819;BME280;65772;51.096;17.006;2023-12-20T09:45:55;99639.34;;;8.50;66.69
76819;BME280;65772;51.096;17.006;2023-12-20T09:48:32;99634.37;;;8.49;66.46
76819;BME280;65772;51.096;17.006;2023-12-20T09:51:03;99628.44;;;8.50;66.36
76819;BME280;65772;51.096;17.006;2023-12-20T09:53:35;99621.33;;;8.51;66.35
76819;BME280;65772;51.096;17.006;2023-12-20T09:56:07;99619.54;;;8.53;66.32
76819;BME280;65772;51.096;17.006;2023-12-20T09:58:39;99617.46;;;8.53;66.16
76819;BME280;65772;51.096;17.006;2023-12-20T10:01:09;99619.54;;;8.53;66.18
76819;BME280;65772;51.096;17.006;2023-12-20T10:03:42;99617.59;;;8.51;66.07
76819;BME280;65772;51.096;17.006;2023-12-20T10:06:12;99620.48;;;8.51;65.92
76819;BME280;65772;51.096;17.006;2023-12-20T10:08:44;99618.71;;;8.49;65.95
76819;BME280;65772;51.096;17.006;2023-12-20T10:11:14;99614.66;;;8.50;65.92
76819;BME280;65772;51.096;17.006;2023-12-20T10:13:45;99617.25;;;8.51;65.85
76819;BME280;65772;51.096;17.006;2023-12-20T10:16:16;99620.05;;;8.54;65.77
76819;BME280;65772;51.096;17.006;2023-12-20T10:18:47;99617.56;;;8.56;65.67
76819;BME280;65772;51.096;17.006;2023-12-20T10:21:19;99618.27;;;8.57;65.52
76819;BME280;65772;51.096;17.006;2023-12-20T10:23:50;99619.14;;;8.59;65.72
76819;BME280;65772;51.096;17.006;2023-12-20T10:26:22;99612.84;;;8.58;65.29
76819;BME280;65772;51.096;17.006;2023-12-20T10:28:55;99616.09;;;8.59;65.28
76819;BME280;65772;51.096;17.006;2023-12-20T10:31:31;99604.77;;;8.62;65.21
76819;BME280;65772;51.096;17.006;2023-12-20T10:34:02;99607.02;;;8.63;65.17
76819;BME280;65772;51.096;17.006;2023-12-20T10:36:34;99604.44;;;8.62;64.76
76819;BME280;65772;51.096;17.006;2023-12-20T10:39:07;99609.52;;;8.61;64.46
76819;BME280;65772;51.096;17.006;2023-12-20T10:41:41;99609.65;;;8.60;64.48
76819;BME280;65772;51.096;17.006;2023-12-20T10:44:12;99609.59;;;8.57;64.21
76819;BME280;65772;51.096;17.006;2023-12-20T10:46:44;99602.98;;;8.58;64.30
76819;BME280;65772;51.096;17.006;2023-12-20T10:49:21;99607.73;;;8.57;64.16
76819;BME280;65772;51.096;17.006;2023-12-20T10:51:53;99611.09;;;8.55;64.15
76819;BME280;65772;51.096;17.006;2023-12-20T10:54:26;99611.21;;;8.54;63.66
76819;BME280;65772;51.096;17.006;2023-12-20T10:56:58;99606.65;;;8.55;63.78
76819;BME280;65772;51.096;17.006;2023-12-20T10:59:30;99599.75;;;8.59;63.79
76819;BME280;65772;51.096;17.006;2023-12-20T11:02:04;99589.81;;;8.62;63.79
76819;BME280;65772;51.096;17.006;2023-12-20T11:04:47;99582.20;;;8.64;63.76
76819;BME280;65772;51.096;17.006;2023-12-20T11:07:25;99574.79;;;8.66;63.82
76819;BME280;65772;51.096;17.006;2023-12-20T11:10:03;99570.19;;;8.74;63.65
76819;BME280;65772;51.096;17.006;2023-12-20T11:12:43;99567.09;;;8.79;63.33
76819;BME280;65772;51.096;17.006;2023-12-20T11:15:17;99569.51;;;8.81;63.14
76819;BME280;65772;51.096;17.006;2023-12-20T11:17:55;99563.12;;;8.85;62.93
76819;BME280;65772;51.096;17.006;2023-12-20T11:20:37;99566.71;;;8.93;62.98
76819;BME280;65772;51.096;17.006;2023-12-20T11:23:10;99557.19;;;9.00;62.69
76819;BME280;65772;51.096;17.006;2023-12-20T11:25:52;99552.56;;;9.06;62.35
76819;BME280;65772;51.096;17.006;2023-12-20T11:28:24;99552.38;;;9.13;62.49
76819;BME280;65772;51.096;17.006;2023-12-20T11:30:56;99550.89;;;9.23;62.01
76819;BME280;65772;51.096;17.006;2023-12-20T11:33:32;99540.16;;;9.30;62.27
76819;BME280;65772;51.096;17.006;2023-12-20T11:36:18;99543.12;;;9.34;61.70
76819;BME280;65772;51.096;17.006;2023-12-20T11:38:55;99529.91;;;9.38;60.91
76819;BME280;65772;51.096;17.006;2023-12-20T11:41:27;99529.56;;;9.37;60.63
76819;BME280;65772;51.096;17.006;2023-12-20T11:43:58;99533.91;;;9.33;60.10
76819;BME280;65772;51.096;17.006;2023-12-20T11:46:30;99521.95;;;9.31;59.98
76819;BME280;65772;51.096;17.006;2023-12-20T11:49:03;99519.42;;;9.32;59.94
76819;BME280;65772;51.096;17.006;2023-12-20T11:51:34;99514.47;;;9.31;59.68
76819;BME280;65772;51.096;17.006;2023-12-20T11:54:05;99518.55;;;9.31;59.77
76819;BME280;65772;51.096;17.006;2023-12-20T11:56:36;99510.55;;;9.31;59.64
76819;BME280;65772;51.096;17.006;2023-12-20T11:59:09;99514.48;;;9.32;59.88
76819;BME280;65772;51.096;17.006;2023-12-20T12:01:52;99506.64;;;9.32;59.57
76819;BME280;65772;51.096;17.006;2023-12-20T12:04:24;99504.73;;;9.30;59.09
76819;BME280;65772;51.096;17.006;2023-12-20T12:06:55;99497.68;;;9.27;59.36
76819;BME280;65772;51.096;17.006;2023-12-20T12:09:25;99497.13;;;9.26;59.33
76819;BME280;65772;51.096;17.006;2023-12-20T12:11:56;99497.48;;;9.26;59.00
76819;BME280;65772;51.096;17.006;2023-12-20T12:14:27;99489.22;;;9.22;59.14
76819;BME280;65772;51.096;17.006;2023-12-20T12:16:57;99483.39;;;9.19;58.95
76819;BME280;65772;51.096;17.006;2023-12-20T12:19:28;99480.44;;;9.17;59.12
76819;BME280;65772;51.096;17.006;2023-12-20T12:22:08;99466.63;;;9.16;58.74
76819;BME280;65772;51.096;17.006;2023-12-20T12:24:45;99476.02;;;9.17;59.27
76819;BME280;65772;51.096;17.006;2023-12-20T12:27:16;99476.11;;;9.14;58.74
76819;BME280;65772;51.096;17.006;2023-12-20T12:30:03;99469.72;;;9.09;58.51
76819;BME280;65772;51.096;17.006;2023-12-20T12:32:37;99466.39;;;9.05;58.33
76819;BME280;65772;51.096;17.006;2023-12-20T12:35:10;99468.41;;;9.04;58.89
76819;BME280;65772;51.096;17.006;2023-12-20T12:37:41;99465.67;;;9.03;58.77
76819;BME280;65772;51.096;17.006;2023-12-20T12:40:14;99457.64;;;9.02;58.49
76819;BME280;65772;51.096;17.006;2023-12-20T12:42:46;99456.48;;;9.03;58.42
76819;BME280;65772;51.096;17.006;2023-12-20T12:45:17;99455.87;;;9.06;58.36
76819;BME280;65772;51.096;17.006;2023-12-20T12:47:48;99453.14;;;9.06;58.26
76819;BME280;65772;51.096;17.006;2023-12-20T12:50:19;99451.70;;;9.03;58.07
76819;BME280;65772;51.096;17.006;2023-12-20T12:52:50;99458.80;;;9.01;58.11
76819;BME280;65772;51.096;17.006;2023-12-20T12:55:21;99454.92;;;9.02;58.43
76819;BME280;65772;51.096;17.006;2023-12-20T12:57:52;99461.71;;;9.02;58.56
76819;BME280;65772;51.096;17.006;2023-12-20T13:00:22;99462.22;;;9.01;58.01
76819;BME280;65772;51.096;17.006;2023-12-20T13:02:54;99459.15;;;9.00;58.17
76819;BME280;65772;51.096;17.006;2023-12-20T13:05:25;99454.88;;;8.99;58.04
76819;BME280;65772;51.096;17.006;2023-12-20T13:07:56;99452.15;;;8.99;58.12
76819;BME280;65772;51.096;17.006;2023-12-20T13:10:28;99452.30;;;8.98;58.33
76819;BME280;65772;51.096;17.006;2023-12-20T13:12:58;99454.21;;;9.01;58.03
76819;BME280;65772;51.096;17.006;2023-12-20T13:15:29;99448.45;;;9.02;58.09
76819;BME280;65772;51.096;17.006;2023-12-20T13:18:00;99446.30;;;9.05;57.93
76819;BME280;65772;51.096;17.006;2023-12-20T13:20:32;99448.70;;;9.05;58.38
76819;BME280;65772;51.096;17.006;2023-12-20T13:23:02;99452.73;;;9.03;58.36